• Join FlightAware (Why Join?)
  • Login
  • US Flag 
01:25AM EDT


 

Airport Tracker/Info


-or-


 

Live Flight TrackerFlight Track Log ✈ N207TB ✈ 17-Dec-2013 ✈ KAPF - F45

Flight Track Log - Related Links

Times and Time Zones

All times are in EST time to prevent confusion due to time zone crossing. See the N207TB flight status page for this flight to view local times or setup timezone preferences in your user account.

Time Position Orientation Groundspeed Altitude Reporting Facility
EST Latitude Longitude Course Direction KTS MPH feet Rate Location/Type
10:11AM 26.3351 -81.3718 61° Northeast  Level Estimated
10:12AM 26.3567 -81.3003 71° East  Level FlightAware Approximate
10:12AM 26.2639 -81.4922 66° East 186 214 5,000  Level Miami Center
10:13AM 26.3875 -81.2331 62° Northeast  Level Estimated
10:13AM 26.2800 -81.4442 69° East 170 196 5,000  Level Miami Center
10:14AM 26.4151 -81.1642 66° East  Level FlightAware Approximate
10:14AM 26.2961 -81.3939 70° East 165 190 5,000  Level Miami Center
10:15AM 26.4426 -81.0953 66° East  Level FlightAware Approximate
10:15AM 26.3183 -81.3483 61° Northeast 165 190 5,000  Level Miami Center
10:16AM 26.4701 -81.0263 66° East  Level FlightAware Approximate
10:16AM 26.3469 -81.3078 52° Northeast 165 190 5,000  Level Miami Center
10:17AM 26.3750 -81.2694 51° Northeast 170 196 5,000  Level Miami Center
10:18AM 26.4056 -81.2289 50° Northeast 175 201 5,000  Level Miami Center
10:19AM 26.4339 -81.1881 52° Northeast 175 201 5,000  Level Miami Center
10:20AM 26.4622 -81.1472 52° Northeast 175 201 5,000  Level Miami Center
10:21AM 26.4928 -81.1067 50° Northeast 175 201 5,000  Level Miami Center
10:22AM 26.5231 -81.0636 52° Northeast 175 201 5,000 -60 Level Miami Center
10:23AM 26.5536 -81.0183 53° Northeast 170 196 4,900 -60 Descending Miami Center
10:24AM 26.5842 -80.9775 50° Northeast 170 196 4,900  Level Miami Center
10:25AM 26.6144 -80.9369 50° Northeast 170 196 4,900  Level Miami Center
10:26AM 26.6383 -80.9028 52° Northeast 170 196 4,900  Level Miami Center
10:27AM 26.6667 -80.8619 52° Northeast 165 190 4,900  Level Miami Center
10:28AM 26.6992 -80.8167 51° Northeast 165 190 4,900  Level Miami Center
10:29AM 26.7275 -80.7756 52° Northeast 165 190 4,900  Level Miami Center
10:30AM 26.7536 -80.7394 51° Northeast 170 196 4,900  Level Miami Center
10:31AM 26.7817 -80.7008 51° Northeast 165 190 4,900 -300 Level Miami Center
10:32AM 26.8017 -80.6550 64° Northeast 148 170 4,400 -360 Descending Miami Center
10:33AM 26.8400 -80.6328 27° Northeast 141 162 4,200 -480 Descending Miami Center
10:34AM 26.8369 -80.5839 94° East 126 145 3,500 -780 Descending Miami Center
10:35AM 26.8319 -80.5394 97° East 146 168 2,700 -600 Descending Miami Center
10:36AM 26.8308 -80.4953 92° East 151 174 2,400 -300 Descending Miami Center
10:38AM 26.8205 -80.3899 81° East  Level FlightAware Approximate
10:45AM 26.8333 -80.2167 90° East  Level FlightAware Approximate
10:46AM 26.8459 -80.2223 90° East  Level Estimated
10:47AM 26.8459 -80.2223 90° East  Level Estimated
10:48AM 26.8459 -80.2223 90° East  Level Estimated
10:49AM 26.8459 -80.2223 90° East  Level Estimated
10:50AM 26.8459 -80.2223 90° East  Level Estimated
10:51AM 26.8459 -80.2223 90° East  Level Estimated
10:52AM 26.8459 -80.2223 90° East  Level Estimated
10:53AM 26.8459 -80.2223 90° East  Level Estimated
10:54AM 26.8459 -80.2223 90° East  Level Estimated
10:55AM 26.8459 -80.2223 90° East  Level Estimated
10:56AM 26.8459 -80.2223 90° East  Level Estimated
10:57AM 26.8459 -80.2223 90° East  Level Estimated
10:58AM 26.8459 -80.2223 90° East  Level Estimated
10:59AM 26.8459 -80.2223 90° East  Level Estimated
11:00AM 26.8459 -80.2223 90° East  Level Estimated
11:01AM 26.8459 -80.2223 90° East  Level Estimated